createdAt,value
2023-05-19T00:02:05.751Z,69.83
2023-05-19T00:04:36.561Z,68.83
2023-05-19T00:07:08.427Z,68.26
2023-05-19T00:09:38.880Z,67.72
2023-05-19T00:12:13.476Z,66.38
2023-05-19T00:14:44.039Z,66.49
2023-05-19T00:17:14.575Z,66.02
2023-05-19T00:19:45.403Z,66.69
2023-05-19T00:22:15.220Z,67.02
2023-05-19T00:24:45.202Z,66.50
2023-05-19T00:27:17.594Z,66.25
2023-05-19T00:29:47.418Z,66.48
2023-05-19T00:32:17.356Z,66.57
2023-05-19T00:34:48.584Z,66.73
2023-05-19T00:37:18.389Z,66.79
2023-05-19T00:39:48.311Z,66.92
2023-05-19T00:42:21.227Z,66.84
2023-05-19T00:44:51.013Z,67.51
2023-05-19T00:47:20.884Z,67.52
2023-05-19T00:49:50.817Z,67.40
2023-05-19T00:52:20.810Z,68.56
2023-05-19T00:54:51.768Z,68.21
2023-05-19T00:57:24.776Z,68.10
2023-05-19T00:59:54.746Z,68.62
2023-05-19T01:02:24.752Z,68.30
2023-05-19T01:04:55.633Z,68.29
2023-05-19T01:07:25.668Z,68.67
2023-05-19T01:09:55.664Z,68.75
2023-05-19T01:12:29.377Z,68.18
2023-05-19T01:15:01.367Z,68.40
2023-05-19T01:17:40.508Z,68.56
2023-05-19T01:20:20.020Z,68.59
2023-05-19T01:23:21.668Z,69.03
2023-05-19T01:26:22.432Z,69.17
2023-05-19T01:29:37.781Z,68.83
2023-05-19T01:32:12.232Z,69.46
2023-05-19T01:34:46.357Z,70.15
2023-05-19T01:37:17.777Z,70.03
2023-05-19T01:39:51.195Z,70.65
2023-05-19T01:42:22.205Z,71.34
2023-05-19T01:44:52.664Z,71.32
2023-05-19T01:47:25.921Z,70.96
2023-05-19T01:49:55.769Z,71.44
2023-05-19T01:52:25.646Z,71.15
2023-05-19T01:54:55.486Z,71.00
2023-05-19T01:57:33.888Z,70.91
2023-05-19T02:00:13.861Z,71.67
2023-05-19T02:03:00.794Z,71.71
2023-05-19T02:05:38.395Z,71.31
2023-05-19T02:08:16.153Z,71.95
2023-05-19T02:10:51.550Z,72.51
2023-05-19T02:13:27.235Z,72.47
2023-05-19T02:16:02.647Z,71.82
2023-05-19T02:18:36.461Z,72.03
2023-05-19T02:21:06.441Z,72.07
2023-05-19T02:23:36.255Z,72.63
2023-05-19T02:26:06.254Z,72.56
2023-05-19T02:28:36.791Z,72.39
2023-05-19T02:31:09.173Z,72.50
2023-05-19T02:33:43.119Z,72.63
2023-05-19T02:36:14.695Z,72.25
2023-05-19T02:38:44.599Z,72.95
2023-05-19T02:41:14.393Z,72.57
2023-05-19T02:43:44.218Z,72.37
2023-05-19T02:46:14.123Z,72.32
2023-05-19T02:48:46.723Z,72.31
2023-05-19T02:51:16.564Z,72.83
2023-05-19T02:53:46.491Z,73.75
2023-05-19T02:56:16.351Z,72.87
2023-05-19T02:58:46.201Z,73.17
2023-05-19T03:01:16.756Z,73.50
2023-05-19T03:03:49.390Z,73.94
2023-05-19T03:06:19.370Z,73.24
2023-05-19T03:08:49.187Z,73.12
2023-05-19T03:11:19.089Z,74.61
2023-05-19T03:13:49.061Z,74.00
2023-05-19T03:16:19.283Z,73.77
2023-05-19T03:18:52.481Z,73.65
2023-05-19T03:21:22.327Z,74.67
2023-05-19T03:23:52.119Z,74.77
2023-05-19T03:26:23.274Z,74.69
2023-05-19T03:28:53.255Z,74.29
2023-05-19T03:31:23.134Z,75.03
2023-05-19T03:33:55.819Z,73.83
2023-05-19T03:36:26.423Z,73.89
2023-05-19T03:38:56.371Z,73.91
2023-05-19T03:41:26.526Z,73.92
2023-05-19T03:43:56.374Z,74.39
2023-05-19T03:46:26.535Z,75.48
2023-05-19T03:49:15.256Z,75.68
2023-05-19T03:52:04.137Z,75.87
2023-05-19T03:54:57.904Z,76.03
2023-05-19T03:57:27.856Z,75.71
2023-05-19T03:59:57.678Z,75.29
2023-05-19T04:02:27.667Z,74.66
2023-05-19T04:05:00.264Z,74.26
2023-05-19T04:07:30.056Z,74.69
2023-05-19T04:10:00.308Z,74.15
2023-05-19T04:12:31.314Z,74.24
2023-05-19T04:15:01.284Z,73.71
2023-05-19T04:17:31.835Z,74.07
2023-05-19T04:20:04.998Z,74.26
2023-05-19T04:22:34.918Z,74.21
2023-05-19T04:25:05.172Z,74.21
2023-05-19T04:27:36.864Z,74.63
2023-05-19T04:30:07.244Z,73.97
2023-05-19T04:32:37.741Z,74.15
2023-05-19T04:35:13.860Z,73.57
2023-05-19T04:37:46.162Z,73.90
2023-05-19T04:40:17.563Z,74.46
2023-05-19T04:42:49.966Z,74.08
2023-05-19T04:45:21.195Z,74.53
2023-05-19T04:47:58.781Z,74.28
2023-05-19T04:50:33.065Z,74.08
2023-05-19T04:53:03.582Z,74.77
2023-05-19T04:55:34.437Z,74.60
2023-05-19T04:58:04.539Z,74.29
2023-05-19T05:00:36.035Z,74.76
2023-05-19T05:03:09.456Z,74.53
2023-05-19T05:05:41.931Z,73.75
2023-05-19T05:08:15.547Z,73.77
2023-05-19T05:10:46.495Z,72.88
2023-05-19T05:13:16.997Z,73.16
2023-05-19T05:15:47.520Z,73.10
2023-05-19T05:18:18.959Z,73.50
2023-05-19T05:20:52.079Z,72.83
2023-05-19T05:23:23.126Z,73.02
2023-05-19T05:25:54.399Z,73.23
2023-05-19T05:28:25.445Z,72.68
2023-05-19T05:30:57.554Z,72.33
2023-05-19T05:33:27.873Z,72.99
2023-05-19T05:36:00.404Z,73.62
2023-05-19T05:38:31.719Z,73.30
2023-05-19T05:41:03.294Z,73.76
2023-05-19T05:43:34.107Z,73.54
2023-05-19T05:46:06.580Z,73.65
2023-05-19T05:48:37.376Z,74.34
2023-05-19T05:51:11.460Z,74.18
2023-05-19T05:53:45.798Z,73.19
2023-05-19T05:56:17.922Z,72.23
2023-05-19T05:58:53.939Z,71.54
2023-05-19T06:01:24.639Z,71.20
2023-05-19T06:03:55.438Z,71.50
2023-05-19T06:06:30.079Z,70.44
2023-05-19T06:08:59.992Z,70.22
2023-05-19T06:11:31.409Z,69.27
2023-05-19T06:14:02.322Z,68.78
2023-05-19T06:16:50.933Z,68.70
2023-05-19T06:19:21.841Z,67.69
2023-05-19T06:21:54.459Z,66.84
2023-05-19T06:24:24.304Z,66.27
2023-05-19T06:26:54.143Z,66.08
2023-05-19T06:29:24.082Z,66.19
2023-05-19T06:31:56.480Z,66.29
2023-05-19T06:34:27.094Z,65.80
2023-05-19T06:36:59.667Z,66.43
2023-05-19T06:39:30.240Z,66.08
2023-05-19T06:42:00.170Z,65.52
2023-05-19T06:44:49.925Z,65.11
2023-05-19T06:47:20.288Z,64.90
2023-05-19T06:49:55.594Z,64.17
2023-05-19T06:52:31.438Z,63.71
2023-05-19T06:55:02.781Z,64.01
2023-05-19T06:57:34.172Z,63.79
2023-05-19T07:00:05.948Z,64.01
2023-05-19T07:02:35.976Z,65.03
2023-05-19T07:05:08.366Z,65.14
2023-05-19T07:07:41.973Z,63.54
2023-05-19T07:10:15.916Z,64.20
2023-05-19T07:12:46.423Z,64.43
2023-05-19T07:15:20.484Z,64.59
2023-05-19T07:17:51.158Z,64.84
2023-05-19T07:20:21.493Z,64.11
2023-05-19T07:22:54.072Z,63.62
2023-05-19T07:25:23.974Z,63.65
2023-05-19T07:27:53.775Z,63.62
2023-05-19T07:30:23.663Z,63.40
2023-05-19T07:32:53.515Z,62.21
2023-05-19T07:35:24.701Z,62.20
2023-05-19T07:37:57.147Z,59.95
2023-05-19T07:40:27.094Z,60.82
2023-05-19T07:42:56.949Z,60.11
2023-05-19T07:45:26.828Z,61.04
2023-05-19T07:47:56.822Z,59.32
2023-05-19T07:50:26.983Z,59.14
2023-05-19T07:52:59.453Z,59.33
2023-05-19T07:55:29.389Z,59.11
2023-05-19T07:57:59.233Z,58.92
2023-05-19T08:00:29.404Z,58.77
2023-05-19T08:03:00.096Z,57.62
2023-05-19T08:05:30.064Z,57.78
2023-05-19T08:08:02.895Z,56.59
2023-05-19T08:10:32.965Z,58.24
2023-05-19T08:13:02.994Z,57.36
2023-05-19T08:15:32.919Z,56.69
2023-05-19T08:18:03.507Z,56.80
2023-05-19T08:20:34.381Z,56.67
2023-05-19T08:23:07.422Z,57.43
2023-05-19T08:25:37.189Z,56.86
2023-05-19T08:28:07.342Z,57.10
2023-05-19T08:30:37.164Z,56.31
2023-05-19T08:33:07.307Z,56.53
2023-05-19T08:35:38.158Z,55.19
2023-05-19T08:38:11.302Z,55.84
2023-05-19T08:40:44.462Z,56.31
2023-05-19T08:43:14.789Z,56.31
2023-05-19T08:45:48.409Z,55.63
2023-05-19T08:48:20.933Z,55.67
2023-05-19T08:50:59.501Z,55.21
2023-05-19T08:53:39.210Z,55.45
2023-05-19T08:56:14.563Z,55.49
2023-05-19T08:58:45.283Z,54.97
2023-05-19T09:01:17.441Z,55.68
2023-05-19T09:03:50.202Z,54.59
2023-05-19T09:06:20.396Z,55.33
2023-05-19T09:08:52.808Z,55.13
2023-05-19T09:11:22.754Z,55.71
2023-05-19T09:13:53.156Z,53.59
2023-05-19T09:16:23.882Z,53.36
2023-05-19T09:18:58.217Z,54.37
2023-05-19T09:21:33.244Z,54.46
2023-05-19T09:24:10.836Z,54.31
2023-05-19T09:26:42.095Z,54.63
2023-05-19T09:29:15.710Z,54.48
2023-05-19T09:31:52.071Z,54.29
2023-05-19T09:34:22.478Z,54.98
2023-05-19T09:36:53.827Z,55.18
2023-05-19T09:39:26.949Z,54.09
2023-05-19T09:41:58.720Z,52.48
2023-05-19T09:44:31.476Z,51.71
2023-05-19T09:47:02.439Z,52.00
2023-05-19T09:49:33.298Z,52.96
2023-05-19T09:52:06.042Z,53.77
2023-05-19T09:54:38.490Z,51.63
2023-05-19T09:57:09.610Z,50.06
2023-05-19T09:59:39.943Z,50.30
2023-05-19T10:02:17.993Z,50.52
2023-05-19T10:04:49.282Z,50.21
2023-05-19T10:07:20.446Z,50.06
2023-05-19T10:09:54.346Z,49.07
2023-05-19T10:12:25.873Z,47.75
2023-05-19T10:14:57.201Z,47.71
2023-05-19T10:17:28.887Z,46.85
2023-05-19T10:19:58.727Z,47.81
2023-05-19T10:22:28.659Z,47.95
2023-05-19T10:25:01.306Z,48.31
2023-05-19T10:27:33.499Z,46.14
2023-05-19T10:30:10.820Z,46.04
2023-05-19T10:32:44.785Z,46.10
2023-05-19T10:35:37.686Z,47.14
2023-05-19T10:38:19.378Z,46.90
2023-05-19T10:41:02.394Z,48.08
2023-05-19T10:43:47.457Z,47.73
2023-05-19T10:46:22.735Z,45.91
2023-05-19T10:48:52.976Z,46.54
2023-05-19T10:51:22.869Z,45.08
2023-05-19T10:53:54.325Z,43.83
2023-05-19T10:56:36.663Z,43.21
2023-05-19T10:59:06.744Z,43.73
2023-05-19T11:01:39.121Z,42.61
2023-05-19T11:04:12.406Z,42.08
2023-05-19T11:06:43.107Z,42.88
2023-05-19T11:09:16.304Z,42.23
2023-05-19T11:11:51.009Z,42.63
2023-05-19T11:14:23.193Z,41.85
2023-05-19T11:16:54.902Z,42.24
2023-05-19T11:19:30.607Z,43.35
2023-05-19T11:22:10.326Z,41.85
2023-05-19T11:24:41.434Z,41.50
2023-05-19T11:27:29.024Z,42.36
2023-05-19T11:30:00.283Z,40.74
2023-05-19T11:32:32.053Z,41.04
2023-05-19T11:35:03.684Z,41.29
2023-05-19T11:37:35.987Z,40.86
2023-05-19T11:40:07.654Z,40.89
2023-05-19T11:42:40.087Z,40.10
2023-05-19T11:45:11.807Z,40.14
2023-05-19T11:47:57.193Z,40.79
2023-05-19T11:50:31.838Z,39.95
2023-05-19T11:53:04.038Z,39.87
2023-05-19T11:55:34.457Z,40.89
2023-05-19T11:58:07.392Z,40.69
2023-05-19T12:00:40.460Z,40.70
2023-05-19T12:03:11.734Z,38.84
2023-05-19T12:05:44.379Z,37.73
2023-05-19T12:08:14.701Z,37.23
2023-05-19T12:10:44.669Z,37.25
2023-05-19T12:13:17.816Z,37.78
2023-05-19T12:15:47.732Z,38.07
2023-05-19T12:18:17.557Z,37.67
2023-05-19T12:20:47.653Z,38.39
2023-05-19T12:23:17.701Z,38.91
2023-05-19T12:25:47.636Z,39.56
2023-05-19T12:28:20.015Z,39.08
2023-05-19T12:30:52.311Z,39.69
2023-05-19T12:33:22.996Z,40.70
2023-05-19T12:35:53.233Z,40.94
2023-05-19T12:38:23.409Z,42.28
2023-05-19T12:40:53.808Z,43.45
2023-05-19T12:43:26.930Z,43.68
2023-05-19T12:45:56.842Z,43.30
2023-05-19T12:48:26.704Z,43.28
2023-05-19T12:50:57.018Z,43.55
2023-05-19T12:53:29.745Z,43.36
2023-05-19T12:55:59.568Z,43.93
2023-05-19T12:58:31.950Z,42.33
2023-05-19T13:01:02.587Z,42.49
2023-05-19T13:03:32.481Z,41.30
2023-05-19T13:06:02.404Z,41.76
2023-05-19T13:08:32.155Z,41.91
2023-05-19T13:11:02.055Z,40.77
2023-05-19T13:13:35.485Z,41.29
2023-05-19T13:16:05.407Z,39.59
2023-05-19T13:18:37.944Z,40.29
2023-05-19T13:21:08.425Z,38.20
2023-05-19T13:23:38.245Z,39.75
2023-05-19T13:26:08.127Z,40.65
2023-05-19T13:28:40.533Z,39.92
2023-05-19T13:31:10.428Z,41.91
2023-05-19T13:33:40.266Z,42.35
2023-05-19T13:36:10.451Z,42.48
2023-05-19T13:38:42.033Z,43.11
2023-05-19T13:41:13.695Z,41.68
2023-05-19T13:43:46.487Z,42.73
2023-05-19T13:46:16.444Z,42.53
2023-05-19T13:48:46.435Z,43.40
2023-05-19T13:51:16.341Z,43.37
2023-05-19T13:53:46.163Z,42.43
2023-05-19T13:56:16.006Z,43.66
2023-05-19T13:58:48.402Z,42.41
2023-05-19T14:01:18.199Z,40.19
2023-05-19T14:03:48.489Z,39.65
2023-05-19T14:06:18.460Z,38.89
2023-05-19T14:08:48.708Z,39.71
2023-05-19T14:11:21.914Z,39.55
2023-05-19T14:13:54.453Z,40.33
2023-05-19T14:16:26.611Z,40.30
2023-05-19T14:18:56.493Z,39.94
2023-05-19T14:21:26.377Z,39.52
2023-05-19T14:23:56.244Z,39.29
2023-05-19T14:26:28.636Z,39.53
2023-05-19T14:29:02.595Z,39.16
2023-05-19T14:31:32.976Z,39.26
2023-05-19T14:34:02.932Z,39.20
2023-05-19T14:36:34.167Z,39.16
2023-05-19T14:39:04.170Z,38.32
2023-05-19T14:41:33.985Z,38.70
2023-05-19T14:44:06.685Z,38.19
2023-05-19T14:46:36.935Z,38.76
2023-05-19T14:49:06.880Z,38.64
2023-05-19T14:51:36.698Z,38.16
2023-05-19T14:54:06.737Z,39.43
2023-05-19T14:56:36.589Z,40.24
2023-05-19T14:59:09.011Z,40.90
2023-05-19T15:01:38.854Z,40.95
2023-05-19T15:04:08.795Z,40.35
2023-05-19T15:06:38.689Z,40.19
2023-05-19T15:09:08.539Z,40.08
2023-05-19T15:11:38.499Z,39.05
2023-05-19T15:14:10.932Z,38.97
2023-05-19T15:16:40.773Z,40.07
2023-05-19T15:19:10.677Z,40.05
2023-05-19T15:21:40.596Z,39.85
2023-05-19T15:24:10.624Z,39.49
2023-05-19T15:26:40.703Z,40.17
2023-05-19T15:29:13.120Z,39.95
2023-05-19T15:31:43.206Z,39.89
2023-05-19T15:34:13.134Z,40.07
2023-05-19T15:36:43.191Z,40.57
2023-05-19T15:39:13.006Z,39.52
2023-05-19T15:41:42.857Z,40.37
2023-05-19T15:44:15.250Z,39.80
2023-05-19T15:46:45.177Z,40.30
2023-05-19T15:49:15.025Z,40.25
2023-05-19T15:51:45.081Z,40.62
2023-05-19T15:54:14.969Z,40.15
2023-05-19T15:56:44.771Z,40.43
2023-05-19T15:59:17.209Z,39.56
2023-05-19T16:01:47.093Z,38.92
2023-05-19T16:04:17.965Z,39.82
2023-05-19T16:06:47.862Z,39.85
2023-05-19T16:09:17.766Z,40.35
2023-05-19T16:11:47.583Z,40.89
2023-05-19T16:14:20.049Z,40.29
2023-05-19T16:16:49.950Z,39.58
2023-05-19T16:19:19.912Z,40.27
2023-05-19T16:21:50.087Z,40.15
2023-05-19T16:24:19.914Z,40.38
2023-05-19T16:26:49.722Z,40.81
2023-05-19T16:29:22.153Z,39.42
2023-05-19T16:31:52.140Z,39.67
2023-05-19T16:34:22.039Z,40.01
2023-05-19T16:36:51.860Z,40.07
2023-05-19T16:39:21.726Z,41.07
2023-05-19T16:41:52.977Z,40.93
2023-05-19T16:44:25.835Z,40.21
2023-05-19T16:46:55.699Z,39.48
2023-05-19T16:49:25.557Z,39.58
2023-05-19T16:51:56.029Z,40.62
2023-05-19T16:54:26.062Z,40.23
2023-05-19T16:56:55.891Z,40.29
2023-05-19T16:59:28.456Z,40.12
2023-05-19T17:01:58.925Z,40.26
2023-05-19T17:04:30.738Z,40.49
2023-05-19T17:07:01.065Z,39.84
2023-05-19T17:09:31.493Z,40.40
2023-05-19T17:12:01.320Z,40.83
2023-05-19T17:14:33.722Z,41.19
2023-05-19T17:17:03.663Z,41.35
2023-05-19T17:19:33.643Z,41.77
2023-05-19T17:22:04.039Z,41.90
2023-05-19T17:24:33.890Z,41.86
2023-05-19T17:27:03.852Z,42.10
2023-05-19T17:29:36.892Z,41.10
2023-05-19T17:32:07.569Z,41.39
2023-05-19T17:34:37.424Z,41.73
2023-05-19T17:37:07.774Z,41.44
2023-05-19T17:39:37.590Z,41.84
2023-05-19T17:42:08.266Z,42.01
2023-05-19T17:44:41.539Z,42.11
2023-05-19T17:47:11.433Z,42.28
2023-05-19T17:49:41.598Z,42.22
2023-05-19T17:52:12.881Z,43.08
2023-05-19T17:54:43.073Z,42.38
2023-05-19T17:57:14.912Z,42.09
2023-05-19T17:59:48.105Z,42.31
2023-05-19T18:02:18.794Z,42.55
2023-05-19T18:04:49.414Z,42.82
2023-05-19T18:07:21.060Z,42.67
2023-05-19T18:09:52.392Z,42.38
2023-05-19T18:12:22.923Z,43.20
2023-05-19T18:14:55.369Z,43.02
2023-05-19T18:17:25.244Z,43.37
2023-05-19T18:19:55.094Z,43.29
2023-05-19T18:22:24.881Z,43.74
2023-05-19T18:24:54.795Z,44.38
2023-05-19T18:27:24.622Z,44.19
2023-05-19T18:29:57.043Z,44.13
2023-05-19T18:32:27.099Z,45.15
2023-05-19T18:34:56.937Z,44.87
2023-05-19T18:37:26.817Z,45.25
2023-05-19T18:39:56.657Z,45.13
2023-05-19T18:42:26.551Z,45.18
2023-05-19T18:44:59.034Z,45.37
2023-05-19T18:47:29.018Z,46.08
2023-05-19T18:49:59.096Z,45.97
2023-05-19T18:52:30.990Z,46.79
2023-05-19T18:55:01.346Z,46.68
2023-05-19T18:57:31.461Z,47.18
2023-05-19T19:00:04.472Z,46.92
2023-05-19T19:02:35.672Z,47.59
2023-05-19T19:05:09.635Z,47.38
2023-05-19T19:07:43.335Z,47.96
2023-05-19T19:10:15.323Z,47.79
2023-05-19T19:12:45.241Z,48.24
2023-05-19T19:15:17.715Z,48.13
2023-05-19T19:17:47.651Z,48.34
2023-05-19T19:20:17.598Z,48.17
2023-05-19T19:22:47.569Z,48.79
2023-05-19T19:25:17.592Z,49.01
2023-05-19T19:27:47.418Z,49.25
2023-05-19T19:30:20.168Z,49.57
2023-05-19T19:32:50.048Z,49.92
2023-05-19T19:35:20.156Z,49.84
2023-05-19T19:37:51.834Z,50.02
2023-05-19T19:40:21.882Z,50.04
2023-05-19T19:42:51.679Z,49.86
2023-05-19T19:45:24.108Z,49.82
2023-05-19T19:47:54.559Z,49.94
2023-05-19T19:50:24.477Z,50.26
2023-05-19T19:52:54.329Z,49.73
2023-05-19T19:55:24.248Z,50.13
2023-05-19T19:57:54.163Z,49.98
2023-05-19T20:00:27.001Z,50.08
2023-05-19T20:03:05.241Z,50.44
2023-05-19T20:05:36.132Z,50.25
2023-05-19T20:08:05.927Z,50.12
2023-05-19T20:10:35.929Z,50.15
2023-05-19T20:13:05.915Z,50.16
2023-05-19T20:15:38.438Z,50.14
2023-05-19T20:18:08.473Z,50.26
2023-05-19T20:20:38.459Z,50.29
2023-05-19T20:23:08.820Z,50.43
2023-05-19T20:25:57.850Z,50.25
2023-05-19T20:28:32.788Z,50.11
2023-05-19T20:31:05.325Z,50.94
2023-05-19T20:33:35.298Z,50.75
2023-05-19T20:36:05.256Z,50.40
2023-05-19T20:38:35.101Z,50.37
2023-05-19T20:41:04.976Z,50.85
2023-05-19T20:43:35.387Z,50.77
2023-05-19T20:46:07.896Z,50.87
2023-05-19T20:48:37.748Z,51.13
2023-05-19T20:51:07.903Z,51.12
2023-05-19T20:53:37.763Z,51.24
2023-05-19T20:56:10.612Z,51.74
2023-05-19T20:58:40.771Z,51.48
2023-05-19T21:01:13.210Z,51.64
2023-05-19T21:03:43.129Z,51.74
2023-05-19T21:06:13.034Z,51.88
2023-05-19T21:08:42.834Z,51.67
2023-05-19T21:11:12.661Z,51.63
2023-05-19T21:13:43.509Z,51.70
2023-05-19T21:16:15.945Z,52.23
2023-05-19T21:18:45.880Z,53.17
2023-05-19T21:21:15.773Z,53.37
2023-05-19T21:23:45.557Z,53.98
2023-05-19T21:26:15.595Z,54.28
2023-05-19T21:28:45.440Z,54.51
2023-05-19T21:31:18.126Z,54.81
2023-05-19T21:33:47.975Z,55.43
2023-05-19T21:36:18.462Z,55.92
2023-05-19T21:38:48.259Z,56.31
2023-05-19T21:41:18.209Z,56.57
2023-05-19T21:43:48.005Z,56.38
2023-05-19T21:46:20.544Z,56.55
2023-05-19T21:48:50.385Z,57.14
2023-05-19T21:51:20.258Z,57.48
2023-05-19T21:53:50.067Z,57.63
2023-05-19T21:56:19.886Z,58.06
2023-05-19T21:58:49.688Z,58.21
2023-05-19T22:01:22.471Z,58.71
2023-05-19T22:03:52.569Z,58.24
2023-05-19T22:06:22.477Z,58.63
2023-05-19T22:08:52.336Z,59.24
2023-05-19T22:11:22.155Z,59.90
2023-05-19T22:13:54.850Z,60.07
2023-05-19T22:16:27.301Z,60.34
2023-05-19T22:18:57.219Z,61.13
2023-05-19T22:21:27.201Z,61.21
2023-05-19T22:23:57.028Z,61.01
2023-05-19T22:26:27.420Z,61.33
2023-05-19T22:28:58.095Z,61.05
2023-05-19T22:31:31.332Z,61.39
2023-05-19T22:34:01.189Z,61.53
2023-05-19T22:36:31.392Z,61.87
2023-05-19T22:39:01.247Z,62.19
2023-05-19T22:41:31.112Z,62.27
2023-05-19T22:44:00.995Z,62.98
2023-05-19T22:46:34.338Z,62.96
2023-05-19T22:49:04.228Z,62.71
2023-05-19T22:51:34.143Z,62.53
2023-05-19T22:54:04.147Z,62.75
2023-05-19T22:56:34.008Z,62.86
2023-05-19T22:59:03.798Z,62.58
2023-05-19T23:01:36.473Z,62.88
2023-05-19T23:04:06.551Z,62.54
2023-05-19T23:06:36.396Z,62.67
2023-05-19T23:09:07.324Z,62.53
2023-05-19T23:11:37.175Z,62.71
2023-05-19T23:14:07.066Z,62.77
2023-05-19T23:16:39.534Z,62.77
2023-05-19T23:19:09.492Z,63.11
2023-05-19T23:21:39.318Z,63.14
2023-05-19T23:24:09.561Z,63.17
2023-05-19T23:26:39.413Z,63.43
2023-05-19T23:29:09.299Z,63.26
2023-05-19T23:31:41.832Z,63.33
2023-05-19T23:34:11.759Z,63.44
2023-05-19T23:36:41.621Z,63.59
2023-05-19T23:39:11.510Z,63.87
2023-05-19T23:41:41.445Z,64.02
2023-05-19T23:44:11.547Z,64.22
2023-05-19T23:46:43.992Z,63.81
2023-05-19T23:49:14.666Z,63.50
2023-05-19T23:51:44.511Z,63.51
2023-05-19T23:54:14.326Z,63.08
2023-05-19T23:56:44.221Z,63.27
2023-05-19T23:59:14.160Z,63.19
